sensor_id;sensor_type;location;lat;lon;timestamp;temperature;humidity
70986;DHT22;58645;43.068;25.610;2023-07-13T00:00:17;24.50;92.60
70986;DHT22;58645;43.068;25.610;2023-07-13T00:02:43;24.40;93.50
70986;DHT22;58645;43.068;25.610;2023-07-13T00:05:09;24.40;93.80
70986;DHT22;58645;43.068;25.610;2023-07-13T00:07:36;24.40;94.30
70986;DHT22;58645;43.068;25.610;2023-07-13T00:10:03;24.40;93.50
70986;DHT22;58645;43.068;25.610;2023-07-13T00:12:31;24.30;93.70
70986;DHT22;58645;43.068;25.610;2023-07-13T00:15:00;24.20;94.30
70986;DHT22;58645;43.068;25.610;2023-07-13T00:17:27;24.20;95.40
70986;DHT22;58645;43.068;25.610;2023-07-13T00:19:53;24.10;96.60
70986;DHT22;58645;43.068;25.610;2023-07-13T00:22:21;24.00;97.70
70986;DHT22;58645;43.068;25.610;2023-07-13T00:24:47;23.90;99.00
70986;DHT22;58645;43.068;25.610;2023-07-13T00:27:14;23.90;99.20
70986;DHT22;58645;43.068;25.610;2023-07-13T00:29:40;23.80;99.40
70986;DHT22;58645;43.068;25.610;2023-07-13T00:32:07;23.80;99.90
70986;DHT22;58645;43.068;25.610;2023-07-13T00:34:33;23.70;99.90
70986;DHT22;58645;43.068;25.610;2023-07-13T00:36:59;23.70;99.90
70986;DHT22;58645;43.068;25.610;2023-07-13T00:39:24;23.70;99.90
70986;DHT22;58645;43.068;25.610;2023-07-13T00:41:50;23.60;99.90
70986;DHT22;58645;43.068;25.610;2023-07-13T00:44:20;23.60;99.90
70986;DHT22;58645;43.068;25.610;2023-07-13T00:46:49;23.50;99.90
70986;DHT22;58645;43.068;25.610;2023-07-13T00:49:17;23.50;99.90
70986;DHT22;58645;43.068;25.610;2023-07-13T00:51:52;23.40;99.90
70986;DHT22;58645;43.068;25.610;2023-07-13T00:54:29;23.40;99.90
70986;DHT22;58645;43.068;25.610;2023-07-13T00:57:00;23.40;99.90
70986;DHT22;58645;43.068;25.610;2023-07-13T00:59:27;23.40;99.90
70986;DHT22;58645;43.068;25.610;2023-07-13T01:01:53;23.30;99.90
70986;DHT22;58645;43.068;25.610;2023-07-13T01:04:19;23.30;99.90
70986;DHT22;58645;43.068;25.610;2023-07-13T01:06:45;23.30;99.90
70986;DHT22;58645;43.068;25.610;2023-07-13T01:09:13;23.30;99.90
70986;DHT22;58645;43.068;25.610;2023-07-13T01:11:40;23.30;99.90
70986;DHT22;58645;43.068;25.610;2023-07-13T01:14:07;23.30;99.90
70986;DHT22;58645;43.068;25.610;2023-07-13T01:16:35;23.20;99.90
70986;DHT22;58645;43.068;25.610;2023-07-13T01:19:03;23.20;99.90
70986;DHT22;58645;43.068;25.610;2023-07-13T01:21:33;23.20;99.90
70986;DHT22;58645;43.068;25.610;2023-07-13T01:23:59;23.20;99.90
70986;DHT22;58645;43.068;25.610;2023-07-13T01:26:25;23.10;99.90
70986;DHT22;58645;43.068;25.610;2023-07-13T01:28:52;23.00;99.90
70986;DHT22;58645;43.068;25.610;2023-07-13T01:31:18;23.00;99.90
70986;DHT22;58645;43.068;25.610;2023-07-13T01:33:43;23.00;99.90
70986;DHT22;58645;43.068;25.610;2023-07-13T01:36:10;22.90;99.90
70986;DHT22;58645;43.068;25.610;2023-07-13T01:38:36;22.90;99.90
70986;DHT22;58645;43.068;25.610;2023-07-13T01:41:02;22.90;99.90
70986;DHT22;58645;43.068;25.610;2023-07-13T01:43:29;22.90;99.90
70986;DHT22;58645;43.068;25.610;2023-07-13T01:45:54;22.80;99.90
70986;DHT22;58645;43.068;25.610;2023-07-13T01:48:20;22.80;99.90
70986;DHT22;58645;43.068;25.610;2023-07-13T01:50:47;22.80;99.90
70986;DHT22;58645;43.068;25.610;2023-07-13T01:53:13;22.80;99.90
70986;DHT22;58645;43.068;25.610;2023-07-13T01:55:38;22.80;99.90
70986;DHT22;58645;43.068;25.610;2023-07-13T01:58:05;22.70;99.90
70986;DHT22;58645;43.068;25.610;2023-07-13T02:00:31;22.60;99.90
70986;DHT22;58645;43.068;25.610;2023-07-13T02:02:57;22.60;99.90
70986;DHT22;58645;43.068;25.610;2023-07-13T02:05:22;22.60;99.90
70986;DHT22;58645;43.068;25.610;2023-07-13T02:07:48;22.60;99.90
70986;DHT22;58645;43.068;25.610;2023-07-13T02:10:14;22.60;99.90
70986;DHT22;58645;43.068;25.610;2023-07-13T02:12:41;22.60;99.90
70986;DHT22;58645;43.068;25.610;2023-07-13T02:15:07;22.60;99.90
70986;DHT22;58645;43.068;25.610;2023-07-13T02:17:34;22.60;99.90
70986;DHT22;58645;43.068;25.610;2023-07-13T02:20:01;22.50;99.90
70986;DHT22;58645;43.068;25.610;2023-07-13T02:22:26;22.50;99.90
70986;DHT22;58645;43.068;25.610;2023-07-13T02:24:52;22.60;99.90
70986;DHT22;58645;43.068;25.610;2023-07-13T02:27:18;22.50;99.90
70986;DHT22;58645;43.068;25.610;2023-07-13T02:29:44;22.50;99.90
70986;DHT22;58645;43.068;25.610;2023-07-13T02:32:10;22.50;99.90
70986;DHT22;58645;43.068;25.610;2023-07-13T02:34:35;22.50;99.90
70986;DHT22;58645;43.068;25.610;2023-07-13T02:37:01;22.50;99.90
70986;DHT22;58645;43.068;25.610;2023-07-13T02:39:27;22.40;99.90
70986;DHT22;58645;43.068;25.610;2023-07-13T02:41:52;22.40;99.90
70986;DHT22;58645;43.068;25.610;2023-07-13T02:44:19;22.30;99.90
70986;DHT22;58645;43.068;25.610;2023-07-13T02:46:44;22.30;99.90
70986;DHT22;58645;43.068;25.610;2023-07-13T02:49:10;22.20;99.90
70986;DHT22;58645;43.068;25.610;2023-07-13T02:51:36;22.20;99.90
70986;DHT22;58645;43.068;25.610;2023-07-13T02:54:03;22.10;99.90
70986;DHT22;58645;43.068;25.610;2023-07-13T02:56:30;22.10;99.90
70986;DHT22;58645;43.068;25.610;2023-07-13T02:58:57;22.10;99.90
70986;DHT22;58645;43.068;25.610;2023-07-13T03:01:23;22.00;99.90
70986;DHT22;58645;43.068;25.610;2023-07-13T03:03:50;22.00;99.90
70986;DHT22;58645;43.068;25.610;2023-07-13T03:06:17;22.00;99.90
70986;DHT22;58645;43.068;25.610;2023-07-13T03:08:43;22.00;99.90
70986;DHT22;58645;43.068;25.610;2023-07-13T03:11:15;22.00;99.90
70986;DHT22;58645;43.068;25.610;2023-07-13T03:13:41;22.00;99.90
70986;DHT22;58645;43.068;25.610;2023-07-13T03:16:09;22.10;99.90
70986;DHT22;58645;43.068;25.610;2023-07-13T03:18:36;22.00;99.90
70986;DHT22;58645;43.068;25.610;2023-07-13T03:21:03;22.00;99.90
70986;DHT22;58645;43.068;25.610;2023-07-13T03:23:28;22.00;99.90
70986;DHT22;58645;43.068;25.610;2023-07-13T03:26:19;22.10;99.90
70986;DHT22;58645;43.068;25.610;2023-07-13T03:28:46;22.10;99.90
70986;DHT22;58645;43.068;25.610;2023-07-13T03:31:15;22.10;99.90
70986;DHT22;58645;43.068;25.610;2023-07-13T03:33:41;22.00;99.90
70986;DHT22;58645;43.068;25.610;2023-07-13T03:36:12;22.10;99.90
70986;DHT22;58645;43.068;25.610;2023-07-13T03:38:38;22.10;99.90
70986;DHT22;58645;43.068;25.610;2023-07-13T03:41:04;22.10;99.90
70986;DHT22;58645;43.068;25.610;2023-07-13T03:43:30;22.20;99.90
70986;DHT22;58645;43.068;25.610;2023-07-13T03:45:55;22.10;99.90
70986;DHT22;58645;43.068;25.610;2023-07-13T03:48:21;22.10;99.90
70986;DHT22;58645;43.068;25.610;2023-07-13T03:50:47;22.20;99.90
70986;DHT22;58645;43.068;25.610;2023-07-13T03:53:15;22.20;99.90
70986;DHT22;58645;43.068;25.610;2023-07-13T03:55:40;22.20;99.90
70986;DHT22;58645;43.068;25.610;2023-07-13T04:00:52;22.30;99.90
70986;DHT22;58645;43.068;25.610;2023-07-13T04:03:17;22.40;99.90
70986;DHT22;58645;43.068;25.610;2023-07-13T04:05:43;22.50;99.90
70986;DHT22;58645;43.068;25.610;2023-07-13T04:08:09;22.50;99.90
70986;DHT22;58645;43.068;25.610;2023-07-13T04:10:34;22.70;99.90
70986;DHT22;58645;43.068;25.610;2023-07-13T04:13:00;22.90;99.90
70986;DHT22;58645;43.068;25.610;2023-07-13T04:15:30;23.10;99.90
70986;DHT22;58645;43.068;25.610;2023-07-13T04:17:55;23.30;99.90
70986;DHT22;58645;43.068;25.610;2023-07-13T04:20:21;23.40;99.90
70986;DHT22;58645;43.068;25.610;2023-07-13T04:22:47;23.40;99.90
70986;DHT22;58645;43.068;25.610;2023-07-13T04:25:13;23.50;99.90
70986;DHT22;58645;43.068;25.610;2023-07-13T04:27:38;23.60;99.90
70986;DHT22;58645;43.068;25.610;2023-07-13T04:30:05;23.70;99.90
70986;DHT22;58645;43.068;25.610;2023-07-13T04:32:31;23.90;99.90
70986;DHT22;58645;43.068;25.610;2023-07-13T04:34:57;23.90;99.90
70986;DHT22;58645;43.068;25.610;2023-07-13T04:37:25;23.90;99.90
70986;DHT22;58645;43.068;25.610;2023-07-13T04:39:51;23.80;99.90
70986;DHT22;58645;43.068;25.610;2023-07-13T04:42:18;23.80;99.90
70986;DHT22;58645;43.068;25.610;2023-07-13T04:44:48;24.00;99.90
70986;DHT22;58645;43.068;25.610;2023-07-13T04:47:14;24.20;99.90
70986;DHT22;58645;43.068;25.610;2023-07-13T04:49:40;24.40;99.90
70986;DHT22;58645;43.068;25.610;2023-07-13T04:52:06;24.60;99.90
70986;DHT22;58645;43.068;25.610;2023-07-13T04:54:33;24.80;99.90
70986;DHT22;58645;43.068;25.610;2023-07-13T04:57:00;25.00;99.90
70986;DHT22;58645;43.068;25.610;2023-07-13T04:59:26;25.20;99.90
70986;DHT22;58645;43.068;25.610;2023-07-13T05:01:52;25.40;99.90
70986;DHT22;58645;43.068;25.610;2023-07-13T05:04:18;25.50;99.90
70986;DHT22;58645;43.068;25.610;2023-07-13T05:06:44;25.50;99.90
70986;DHT22;58645;43.068;25.610;2023-07-13T05:09:09;25.70;99.90
70986;DHT22;58645;43.068;25.610;2023-07-13T05:11:35;25.80;99.90
70986;DHT22;58645;43.068;25.610;2023-07-13T05:14:01;25.90;99.90
70986;DHT22;58645;43.068;25.610;2023-07-13T05:16:26;26.00;99.90
70986;DHT22;58645;43.068;25.610;2023-07-13T05:18:52;26.30;99.90
70986;DHT22;58645;43.068;25.610;2023-07-13T05:21:19;26.50;99.90
70986;DHT22;58645;43.068;25.610;2023-07-13T05:23:44;26.70;99.90
70986;DHT22;58645;43.068;25.610;2023-07-13T05:26:11;26.90;99.90
70986;DHT22;58645;43.068;25.610;2023-07-13T05:28:37;27.20;99.90
70986;DHT22;58645;43.068;25.610;2023-07-13T05:31:04;27.40;99.00
70986;DHT22;58645;43.068;25.610;2023-07-13T05:33:29;27.60;97.00
70986;DHT22;58645;43.068;25.610;2023-07-13T05:35:55;27.60;96.80
70986;DHT22;58645;43.068;25.610;2023-07-13T05:38:21;27.90;96.50
70986;DHT22;58645;43.068;25.610;2023-07-13T05:40:47;28.10;96.50
70986;DHT22;58645;43.068;25.610;2023-07-13T05:43:13;28.30;95.30
70986;DHT22;58645;43.068;25.610;2023-07-13T05:45:40;28.50;92.30
70986;DHT22;58645;43.068;25.610;2023-07-13T05:48:06;28.50;90.70
70986;DHT22;58645;43.068;25.610;2023-07-13T05:50:31;28.80;90.40
70986;DHT22;58645;43.068;25.610;2023-07-13T05:52:57;29.00;90.90
70986;DHT22;58645;43.068;25.610;2023-07-13T05:55:23;29.20;90.50
70986;DHT22;58645;43.068;25.610;2023-07-13T05:57:49;29.40;89.10
70986;DHT22;58645;43.068;25.610;2023-07-13T06:00:15;29.80;85.40
70986;DHT22;58645;43.068;25.610;2023-07-13T06:02:41;30.00;84.80
70986;DHT22;58645;43.068;25.610;2023-07-13T06:05:07;30.20;84.30
70986;DHT22;58645;43.068;25.610;2023-07-13T06:07:33;30.60;79.00
70986;DHT22;58645;43.068;25.610;2023-07-13T06:09:59;30.80;75.30
70986;DHT22;58645;43.068;25.610;2023-07-13T06:12:25;31.00;75.90
70986;DHT22;58645;43.068;25.610;2023-07-13T06:14:51;31.40;72.70
70986;DHT22;58645;43.068;25.610;2023-07-13T06:17:17;31.90;71.00
70986;DHT22;58645;43.068;25.610;2023-07-13T06:19:44;31.90;68.50
70986;DHT22;58645;43.068;25.610;2023-07-13T06:22:10;32.00;68.70
70986;DHT22;58645;43.068;25.610;2023-07-13T06:24:35;32.10;67.30
70986;DHT22;58645;43.068;25.610;2023-07-13T06:27:01;32.50;65.50
70986;DHT22;58645;43.068;25.610;2023-07-13T06:29:27;32.80;63.70
70986;DHT22;58645;43.068;25.610;2023-07-13T06:31:53;33.20;61.70
70986;DHT22;58645;43.068;25.610;2023-07-13T06:34:19;33.70;60.70
70986;DHT22;58645;43.068;25.610;2023-07-13T06:36:44;34.20;58.70
70986;DHT22;58645;43.068;25.610;2023-07-13T06:39:10;34.60;57.60
70986;DHT22;58645;43.068;25.610;2023-07-13T06:41:36;34.90;57.20
70986;DHT22;58645;43.068;25.610;2023-07-13T06:44:01;35.30;55.30
70986;DHT22;58645;43.068;25.610;2023-07-13T06:46:29;35.50;54.40
70986;DHT22;58645;43.068;25.610;2023-07-13T06:48:56;35.70;52.10
70986;DHT22;58645;43.068;25.610;2023-07-13T06:51:22;36.00;52.00
70986;DHT22;58645;43.068;25.610;2023-07-13T06:53:47;36.10;52.70
70986;DHT22;58645;43.068;25.610;2023-07-13T06:56:13;36.40;52.10
70986;DHT22;58645;43.068;25.610;2023-07-13T06:58:39;36.70;50.50
70986;DHT22;58645;43.068;25.610;2023-07-13T07:01:05;36.80;49.60
70986;DHT22;58645;43.068;25.610;2023-07-13T07:03:31;36.90;49.60
70986;DHT22;58645;43.068;25.610;2023-07-13T07:06:18;37.20;49.70
70986;DHT22;58645;43.068;25.610;2023-07-13T07:08:44;37.40;48.00
70986;DHT22;58645;43.068;25.610;2023-07-13T07:11:16;37.80;47.70
70986;DHT22;58645;43.068;25.610;2023-07-13T07:13:42;37.90;48.60
70986;DHT22;58645;43.068;25.610;2023-07-13T07:16:07;37.90;47.70
70986;DHT22;58645;43.068;25.610;2023-07-13T07:18:34;37.80;48.90
70986;DHT22;58645;43.068;25.610;2023-07-13T07:21:00;37.70;48.60
70986;DHT22;58645;43.068;25.610;2023-07-13T07:23:25;38.00;48.70
70986;DHT22;58645;43.068;25.610;2023-07-13T07:25:51;38.30;48.40
70986;DHT22;58645;43.068;25.610;2023-07-13T07:28:18;38.50;47.50
70986;DHT22;58645;43.068;25.610;2023-07-13T07:30:45;38.40;47.80
70986;DHT22;58645;43.068;25.610;2023-07-13T07:33:10;38.60;47.60
70986;DHT22;58645;43.068;25.610;2023-07-13T07:35:36;38.70;44.90
70986;DHT22;58645;43.068;25.610;2023-07-13T07:38:02;39.00;45.20
70986;DHT22;58645;43.068;25.610;2023-07-13T07:40:28;39.20;44.70
70986;DHT22;58645;43.068;25.610;2023-07-13T07:42:54;39.20;43.70
70986;DHT22;58645;43.068;25.610;2023-07-13T07:45:20;39.40;43.20
70986;DHT22;58645;43.068;25.610;2023-07-13T07:47:46;39.80;44.00
70986;DHT22;58645;43.068;25.610;2023-07-13T07:50:12;39.90;43.10
70986;DHT22;58645;43.068;25.610;2023-07-13T07:52:37;39.80;43.50
70986;DHT22;58645;43.068;25.610;2023-07-13T07:55:05;40.10;43.00
70986;DHT22;58645;43.068;25.610;2023-07-13T07:57:31;40.40;42.60
70986;DHT22;58645;43.068;25.610;2023-07-13T07:59:57;40.70;41.00
70986;DHT22;58645;43.068;25.610;2023-07-13T08:02:24;40.80;40.50
70986;DHT22;58645;43.068;25.610;2023-07-13T08:04:51;40.80;41.30
70986;DHT22;58645;43.068;25.610;2023-07-13T08:07:17;41.10;39.40
70986;DHT22;58645;43.068;25.610;2023-07-13T08:09:42;41.40;39.60
70986;DHT22;58645;43.068;25.610;2023-07-13T08:12:08;41.20;38.80
70986;DHT22;58645;43.068;25.610;2023-07-13T08:14:34;41.30;39.40
70986;DHT22;58645;43.068;25.610;2023-07-13T08:17:00;41.50;39.90
70986;DHT22;58645;43.068;25.610;2023-07-13T08:19:26;41.60;38.20
70986;DHT22;58645;43.068;25.610;2023-07-13T08:21:52;41.70;38.60
70986;DHT22;58645;43.068;25.610;2023-07-13T08:24:17;42.20;38.30
70986;DHT22;58645;43.068;25.610;2023-07-13T08:26:44;42.40;37.20
70986;DHT22;58645;43.068;25.610;2023-07-13T08:29:11;42.60;35.80
70986;DHT22;58645;43.068;25.610;2023-07-13T08:31:37;42.90;35.40
70986;DHT22;58645;43.068;25.610;2023-07-13T08:34:03;42.90;36.20
70986;DHT22;58645;43.068;25.610;2023-07-13T08:36:29;42.90;37.00
70986;DHT22;58645;43.068;25.610;2023-07-13T08:38:55;43.00;35.50
70986;DHT22;58645;43.068;25.610;2023-07-13T08:41:21;42.60;34.40
70986;DHT22;58645;43.068;25.610;2023-07-13T08:43:52;42.50;34.90
70986;DHT22;58645;43.068;25.610;2023-07-13T08:46:28;42.70;35.70
70986;DHT22;58645;43.068;25.610;2023-07-13T08:48:59;42.90;34.80
70986;DHT22;58645;43.068;25.610;2023-07-13T08:51:39;42.70;33.70
70986;DHT22;58645;43.068;25.610;2023-07-13T08:54:27;42.70;32.50
70986;DHT22;58645;43.068;25.610;2023-07-13T08:56:54;43.20;32.60
70986;DHT22;58645;43.068;25.610;2023-07-13T08:59:25;43.00;30.90
70986;DHT22;58645;43.068;25.610;2023-07-13T09:04:48;43.00;31.20
70986;DHT22;58645;43.068;25.610;2023-07-13T09:15:49;43.60;32.00
70986;DHT22;58645;43.068;25.610;2023-07-13T09:18:46;43.80;29.50
70986;DHT22;58645;43.068;25.610;2023-07-13T09:21:22;43.80;28.80
70986;DHT22;58645;43.068;25.610;2023-07-13T09:23:53;43.90;28.20
70986;DHT22;58645;43.068;25.610;2023-07-13T09:26:23;43.90;27.70
70986;DHT22;58645;43.068;25.610;2023-07-13T09:28:53;44.00;27.90
70986;DHT22;58645;43.068;25.610;2023-07-13T09:31:28;44.00;27.60
70986;DHT22;58645;43.068;25.610;2023-07-13T09:33:56;43.90;26.00
70986;DHT22;58645;43.068;25.610;2023-07-13T09:36:29;43.90;25.00
70986;DHT22;58645;43.068;25.610;2023-07-13T09:46:56;43.70;26.20
70986;DHT22;58645;43.068;25.610;2023-07-13T09:49:27;43.80;26.70
70986;DHT22;58645;43.068;25.610;2023-07-13T09:52:06;43.80;27.00
70986;DHT22;58645;43.068;25.610;2023-07-13T09:54:34;43.60;27.60
70986;DHT22;58645;43.068;25.610;2023-07-13T09:57:02;43.60;28.40
70986;DHT22;58645;43.068;25.610;2023-07-13T09:59:37;43.80;28.90
70986;DHT22;58645;43.068;25.610;2023-07-13T10:02:28;43.40;29.10
70986;DHT22;58645;43.068;25.610;2023-07-13T10:05:06;43.60;28.80
70986;DHT22;58645;43.068;25.610;2023-07-13T10:07:38;43.30;29.30
70986;DHT22;58645;43.068;25.610;2023-07-13T10:10:17;43.40;29.10
70986;DHT22;58645;43.068;25.610;2023-07-13T10:12:43;43.60;29.00
70986;DHT22;58645;43.068;25.610;2023-07-13T10:15:16;43.80;29.80
70986;DHT22;58645;43.068;25.610;2023-07-13T10:17:43;43.70;29.80
70986;DHT22;58645;43.068;25.610;2023-07-13T10:20:10;43.70;29.00
70986;DHT22;58645;43.068;25.610;2023-07-13T10:23:02;43.60;28.40
70986;DHT22;58645;43.068;25.610;2023-07-13T10:25:33;43.90;27.70
70986;DHT22;58645;43.068;25.610;2023-07-13T10:28:30;43.90;27.30
70986;DHT22;58645;43.068;25.610;2023-07-13T10:30:59;43.90;27.40
70986;DHT22;58645;43.068;25.610;2023-07-13T10:33:25;44.00;29.40
70986;DHT22;58645;43.068;25.610;2023-07-13T10:35:59;43.40;29.10
70986;DHT22;58645;43.068;25.610;2023-07-13T10:38:27;43.90;29.00
70986;DHT22;58645;43.068;25.610;2023-07-13T10:41:06;44.00;29.00
70986;DHT22;58645;43.068;25.610;2023-07-13T10:43:47;43.90;29.00
70986;DHT22;58645;43.068;25.610;2023-07-13T10:46:17;43.40;27.80
70986;DHT22;58645;43.068;25.610;2023-07-13T10:48:45;43.20;27.30
70986;DHT22;58645;43.068;25.610;2023-07-13T10:51:14;43.40;29.70
70986;DHT22;58645;43.068;25.610;2023-07-13T10:53:40;43.80;28.20
70986;DHT22;58645;43.068;25.610;2023-07-13T10:56:29;43.60;27.90
70986;DHT22;58645;43.068;25.610;2023-07-13T10:59:17;43.70;27.30
70986;DHT22;58645;43.068;25.610;2023-07-13T11:01:52;43.80;28.30
70986;DHT22;58645;43.068;25.610;2023-07-13T11:04:20;43.90;27.60
70986;DHT22;58645;43.068;25.610;2023-07-13T11:06:48;44.00;26.70
70986;DHT22;58645;43.068;25.610;2023-07-13T11:09:39;43.90;26.90
70986;DHT22;58645;43.068;25.610;2023-07-13T11:22:48;43.30;24.50
70986;DHT22;58645;43.068;25.610;2023-07-13T11:25:37;43.40;25.40
70986;DHT22;58645;43.068;25.610;2023-07-13T11:38:36;43.10;23.70
70986;DHT22;58645;43.068;25.610;2023-07-13T11:43:44;43.30;23.10
70986;DHT22;58645;43.068;25.610;2023-07-13T11:46:21;43.10;23.60
70986;DHT22;58645;43.068;25.610;2023-07-13T11:48:49;43.10;23.80
70986;DHT22;58645;43.068;25.610;2023-07-13T11:53:46;43.10;24.60
70986;DHT22;58645;43.068;25.610;2023-07-13T11:56:13;42.60;24.00
70986;DHT22;58645;43.068;25.610;2023-07-13T11:58:39;42.70;24.20
70986;DHT22;58645;43.068;25.610;2023-07-13T12:01:05;42.60;24.30
70986;DHT22;58645;43.068;25.610;2023-07-13T12:03:32;42.40;25.00
70986;DHT22;58645;43.068;25.610;2023-07-13T12:06:05;42.60;24.80
70986;DHT22;58645;43.068;25.610;2023-07-13T12:08:37;42.70;27.10
70986;DHT22;58645;43.068;25.610;2023-07-13T12:11:15;42.70;25.70
70986;DHT22;58645;43.068;25.610;2023-07-13T12:13:41;42.70;27.90
70986;DHT22;58645;43.068;25.610;2023-07-13T12:16:15;42.60;27.80
70986;DHT22;58645;43.068;25.610;2023-07-13T12:18:42;42.40;26.70
70986;DHT22;58645;43.068;25.610;2023-07-13T12:21:13;42.20;27.00
70986;DHT22;58645;43.068;25.610;2023-07-13T12:23:39;42.10;27.50
70986;DHT22;58645;43.068;25.610;2023-07-13T12:26:09;42.00;27.60
70986;DHT22;58645;43.068;25.610;2023-07-13T12:28:43;42.00;27.60
70986;DHT22;58645;43.068;25.610;2023-07-13T12:36:35;41.90;27.70
70986;DHT22;58645;43.068;25.610;2023-07-13T12:39:14;42.00;28.10
70986;DHT22;58645;43.068;25.610;2023-07-13T12:41:41;42.00;29.20
70986;DHT22;58645;43.068;25.610;2023-07-13T12:44:11;41.80;28.70
70986;DHT22;58645;43.068;25.610;2023-07-13T12:46:38;41.80;27.70
70986;DHT22;58645;43.068;25.610;2023-07-13T12:49:06;41.80;27.40
70986;DHT22;58645;43.068;25.610;2023-07-13T12:51:32;42.00;28.30
70986;DHT22;58645;43.068;25.610;2023-07-13T12:54:13;41.60;27.30
70986;DHT22;58645;43.068;25.610;2023-07-13T12:56:40;41.00;28.50
70986;DHT22;58645;43.068;25.610;2023-07-13T12:59:16;41.10;28.70
70986;DHT22;58645;43.068;25.610;2023-07-13T13:01:42;41.10;28.70
70986;DHT22;58645;43.068;25.610;2023-07-13T13:04:09;41.10;28.70
70986;DHT22;58645;43.068;25.610;2023-07-13T13:06:36;41.30;30.10
70986;DHT22;58645;43.068;25.610;2023-07-13T13:09:03;40.70;28.90
70986;DHT22;58645;43.068;25.610;2023-07-13T13:11:31;40.60;29.10
70986;DHT22;58645;43.068;25.610;2023-07-13T13:13:57;40.40;30.50
70986;DHT22;58645;43.068;25.610;2023-07-13T13:19:13;40.90;28.70
70986;DHT22;58645;43.068;25.610;2023-07-13T13:21:39;40.70;29.20
70986;DHT22;58645;43.068;25.610;2023-07-13T13:24:16;40.30;29.20
70986;DHT22;58645;43.068;25.610;2023-07-13T13:26:43;39.80;29.30
70986;DHT22;58645;43.068;25.610;2023-07-13T13:29:21;40.00;30.50
70986;DHT22;58645;43.068;25.610;2023-07-13T13:31:50;40.00;30.00
70986;DHT22;58645;43.068;25.610;2023-07-13T13:34:18;40.10;30.30
70986;DHT22;58645;43.068;25.610;2023-07-13T13:36:45;40.00;30.80
70986;DHT22;58645;43.068;25.610;2023-07-13T13:41:47;40.00;31.90
70986;DHT22;58645;43.068;25.610;2023-07-13T13:44:15;39.60;31.20
70986;DHT22;58645;43.068;25.610;2023-07-13T13:46:44;39.30;32.30
70986;DHT22;58645;43.068;25.610;2023-07-13T13:49:25;39.20;32.50
70986;DHT22;58645;43.068;25.610;2023-07-13T13:51:52;38.90;31.70
70986;DHT22;58645;43.068;25.610;2023-07-13T13:54:20;38.80;32.80
70986;DHT22;58645;43.068;25.610;2023-07-13T13:56:48;38.90;33.50
70986;DHT22;58645;43.068;25.610;2023-07-13T13:59:14;38.70;33.70
70986;DHT22;58645;43.068;25.610;2023-07-13T14:01:41;38.60;34.70
70986;DHT22;58645;43.068;25.610;2023-07-13T14:04:16;38.50;34.10
70986;DHT22;58645;43.068;25.610;2023-07-13T14:06:43;38.50;35.40
70986;DHT22;58645;43.068;25.610;2023-07-13T14:09:11;38.20;36.30
70986;DHT22;58645;43.068;25.610;2023-07-13T14:11:39;38.10;36.90
70986;DHT22;58645;43.068;25.610;2023-07-13T14:14:14;38.00;36.40
70986;DHT22;58645;43.068;25.610;2023-07-13T14:16:42;38.00;35.50
70986;DHT22;58645;43.068;25.610;2023-07-13T14:19:11;37.90;36.10
70986;DHT22;58645;43.068;25.610;2023-07-13T14:21:37;37.80;36.00
70986;DHT22;58645;43.068;25.610;2023-07-13T14:24:03;37.60;36.20
70986;DHT22;58645;43.068;25.610;2023-07-13T14:26:32;37.50;37.10
70986;DHT22;58645;43.068;25.610;2023-07-13T14:28:59;37.50;36.20
70986;DHT22;58645;43.068;25.610;2023-07-13T14:31:26;37.30;36.60
70986;DHT22;58645;43.068;25.610;2023-07-13T14:33:54;37.30;37.20
70986;DHT22;58645;43.068;25.610;2023-07-13T14:36:49;37.20;37.50
70986;DHT22;58645;43.068;25.610;2023-07-13T14:39:21;37.10;38.70
70986;DHT22;58645;43.068;25.610;2023-07-13T14:41:50;37.00;37.20
70986;DHT22;58645;43.068;25.610;2023-07-13T14:44:20;37.00;37.60
70986;DHT22;58645;43.068;25.610;2023-07-13T14:46:48;36.80;37.60
70986;DHT22;58645;43.068;25.610;2023-07-13T14:49:32;36.80;37.10
70986;DHT22;58645;43.068;25.610;2023-07-13T14:52:01;36.90;37.80
70986;DHT22;58645;43.068;25.610;2023-07-13T14:54:29;36.80;38.60
70986;DHT22;58645;43.068;25.610;2023-07-13T14:56:55;36.80;38.60
70986;DHT22;58645;43.068;25.610;2023-07-13T14:59:21;36.80;39.40
70986;DHT22;58645;43.068;25.610;2023-07-13T15:01:48;36.70;39.40
70986;DHT22;58645;43.068;25.610;2023-07-13T15:04:14;36.80;40.20
70986;DHT22;58645;43.068;25.610;2023-07-13T15:06:57;36.80;39.40
70986;DHT22;58645;43.068;25.610;2023-07-13T15:09:28;36.60;39.80
70986;DHT22;58645;43.068;25.610;2023-07-13T15:11:58;36.60;39.80
70986;DHT22;58645;43.068;25.610;2023-07-13T15:14:25;36.60;40.10
70986;DHT22;58645;43.068;25.610;2023-07-13T15:16:54;36.60;42.00
70986;DHT22;58645;43.068;25.610;2023-07-13T15:19:21;36.40;42.30
70986;DHT22;58645;43.068;25.610;2023-07-13T15:21:48;36.40;43.50
70986;DHT22;58645;43.068;25.610;2023-07-13T15:24:14;36.30;42.40
70986;DHT22;58645;43.068;25.610;2023-07-13T15:26:39;36.30;43.30
70986;DHT22;58645;43.068;25.610;2023-07-13T15:29:05;36.30;45.40
70986;DHT22;58645;43.068;25.610;2023-07-13T15:31:32;36.20;47.30
70986;DHT22;58645;43.068;25.610;2023-07-13T15:34:00;36.10;48.50
70986;DHT22;58645;43.068;25.610;2023-07-13T15:36:26;36.00;48.60
70986;DHT22;58645;43.068;25.610;2023-07-13T15:38:54;36.00;46.40
70986;DHT22;58645;43.068;25.610;2023-07-13T15:41:22;35.90;45.70
70986;DHT22;58645;43.068;25.610;2023-07-13T15:43:53;35.90;45.30
70986;DHT22;58645;43.068;25.610;2023-07-13T15:46:21;35.90;44.40
70986;DHT22;58645;43.068;25.610;2023-07-13T15:48:51;35.80;45.30
70986;DHT22;58645;43.068;25.610;2023-07-13T15:53:46;35.80;48.50
70986;DHT22;58645;43.068;25.610;2023-07-13T15:56:18;35.70;48.20
70986;DHT22;58645;43.068;25.610;2023-07-13T15:58:44;35.80;49.40
70986;DHT22;58645;43.068;25.610;2023-07-13T16:01:11;35.60;48.70
70986;DHT22;58645;43.068;25.610;2023-07-13T16:03:36;35.60;49.60
70986;DHT22;58645;43.068;25.610;2023-07-13T16:06:02;35.50;50.10
70986;DHT22;58645;43.068;25.610;2023-07-13T16:08:31;35.50;50.00
70986;DHT22;58645;43.068;25.610;2023-07-13T16:11:00;35.50;49.80
70986;DHT22;58645;43.068;25.610;2023-07-13T16:13:26;35.40;48.70
70986;DHT22;58645;43.068;25.610;2023-07-13T16:15:53;35.30;48.80
70986;DHT22;58645;43.068;25.610;2023-07-13T16:18:21;35.20;49.30
70986;DHT22;58645;43.068;25.610;2023-07-13T16:20:48;35.20;49.00
70986;DHT22;58645;43.068;25.610;2023-07-13T16:23:15;35.10;49.20